CSAV Loncomilla — VRFB3 — position and weather

sailwx.info

Track history (hours):
 
Tides and Currents Weather Stations Pressure Air Temp Water Temp Dewpoint Dewpoint Depression Visibility Wind Speed Wind Dir Waves Ship Positions

CSAV Loncomilla

Last reported at 2015-Aug-29 17:32 UTC. Time now 2015-Sep-04 14:32 UTC.
Position N 27°14' W 115°45'.

Length 261 m; draft 11.7 m.

MMSI: 477207400.

Date/timePositionNaut miles runAvg speedWind from/ knotsBaromVisibWave heightAir tempDewpointWater temp
2015-Aug-29 17:32N 27°14' W 115°45'4220.5
2015-Aug-29 15:29N 27°51' W 116°08'20820.0
2015-Aug-29 05:06N 31°14' W 116°57'914.2
2015-Aug-29 04:27N 31°23' W 116°58'1314.1
2015-Aug-29 03:32N 31°36' W 117°00'1413.1
2015-Aug-29 02:28N 31°46' W 116°49'2 0.1
2015-Aug-28 11:13N 31°46' W 116°47'6 8.9
2015-Aug-28 10:33N 31°44' W 116°53'1716.7
2015-Aug-28 09:33N 31°36' W 117°10'1817.9
2015-Aug-28 08:33N 31°27' W 117°28'1817.8
2015-Aug-28 07:33N 31°18' W 117°46'1817.9
2015-Aug-28 06:33N 31°09' W 118°05'1817.7
2015-Aug-28 05:34N 31°01' W 118°23'1817.8
2015-Aug-28 04:33N 30°52' W 118°41'1817.8
2015-Aug-28 03:33N 30°46' W 119°00'2318.2
2015-Aug-28 02:19N 30°43' W 119°26'1418.1
2015-Aug-28 01:33N 30°41' W 119°42'1818.2
2015-Aug-28 00:33N 30°38' W 120°03'1818.2
2015-Aug-27 23:33N 30°36' W 120°24'1818.2
2015-Aug-27 22:34N 30°34' W 120°45'1818.0
2015-Aug-27 21:33N 30°32' W 121°06'1818.2
2015-Aug-27 20:33N 30°31' W 121°27'1817.9
2015-Aug-27 19:33N 30°30' W 121°48'1717.0
2015-Aug-27 18:33N 30°37' W 122°06'1 1.4
2015-Aug-27 17:34N 30°37' W 122°08'1515.0
2015-Aug-27 16:33N 30°45' W 122°23'2117.1
2015-Aug-27 15:19N 30°57' W 122°43'1317.0
2015-Aug-27 14:33N 31°05' W 122°55'1817.0
2015-Aug-27 13:31N 31°16' W 123°11'1617.0
2015-Aug-27 12:33N 31°25' W 123°26'1717.0
2015-Aug-27 11:32N 31°34' W 123°44'1717.1
2015-Aug-27 10:33N 31°43' W 124°01'1917.2
2015-Aug-27 09:27N 31°54' W 124°19'1517.2
2015-Aug-27 08:33N 32°02' W 124°34'1717.1
2015-Aug-27 07:33N 32°11' W 124°52'24617.0
2015-Aug-26 17:04N 34°15' W 129°06'70717.2
2015-Aug-25 00:00N 39°18' W 142°24'40416.8 090 / 101026.010.8 2.028.022.423.0
2015-Aug-24 00:00N 41°24' W 150°48'   090 / 101028.010.8 2.026.023.222.0
2015-Aug-21 00:00N 43°42' W 178°48'   100 / 161022.0 0.0 2.016.014.414.0
Track history (hours):
 
Tides and Currents Weather Stations Pressure Air Temp Water Temp Dewpoint Dewpoint Depression Visibility Wind Speed Wind Dir Waves Ship Positions

CSAV Loncomilla

Last reported at 2015-Aug-29 17:32 UTC. Time now 2015-Sep-04 14:32 UTC.
Position N 27°14' W 115°45'.

Length 261 m; draft 11.7 m.

MMSI: 477207400.

Date/timePositionNaut miles runAvg speedWind from/ knotsBaromVisibWave heightAir tempDewpointWater temp
2015-Aug-29 17:32N 27°14' W 115°45'4220.5
2015-Aug-29 15:29N 27°51' W 116°08'20820.0
2015-Aug-29 05:06N 31°14' W 116°57'914.2
2015-Aug-29 04:27N 31°23' W 116°58'1314.1
2015-Aug-29 03:32N 31°36' W 117°00'1413.1
2015-Aug-29 02:28N 31°46' W 116°49'2 0.1
2015-Aug-28 11:13N 31°46' W 116°47'6 8.9
2015-Aug-28 10:33N 31°44' W 116°53'1716.7
2015-Aug-28 09:33N 31°36' W 117°10'1817.9
2015-Aug-28 08:33N 31°27' W 117°28'1817.8
2015-Aug-28 07:33N 31°18' W 117°46'1817.9
2015-Aug-28 06:33N 31°09' W 118°05'1817.7
2015-Aug-28 05:34N 31°01' W 118°23'1817.8
2015-Aug-28 04:33N 30°52' W 118°41'1817.8
2015-Aug-28 03:33N 30°46' W 119°00'2318.2
2015-Aug-28 02:19N 30°43' W 119°26'1418.1
2015-Aug-28 01:33N 30°41' W 119°42'1818.2
2015-Aug-28 00:33N 30°38' W 120°03'1818.2
2015-Aug-27 23:33N 30°36' W 120°24'1818.2
2015-Aug-27 22:34N 30°34' W 120°45'1818.0
2015-Aug-27 21:33N 30°32' W 121°06'1818.2
2015-Aug-27 20:33N 30°31' W 121°27'1817.9
2015-Aug-27 19:33N 30°30' W 121°48'1717.0
2015-Aug-27 18:33N 30°37' W 122°06'1 1.4
2015-Aug-27 17:34N 30°37' W 122°08'1515.0
2015-Aug-27 16:33N 30°45' W 122°23'2117.1
2015-Aug-27 15:19N 30°57' W 122°43'1317.0
2015-Aug-27 14:33N 31°05' W 122°55'1817.0
2015-Aug-27 13:31N 31°16' W 123°11'1617.0
2015-Aug-27 12:33N 31°25' W 123°26'1717.0
2015-Aug-27 11:32N 31°34' W 123°44'1717.1
2015-Aug-27 10:33N 31°43' W 124°01'1917.2
2015-Aug-27 09:27N 31°54' W 124°19'1517.2
2015-Aug-27 08:33N 32°02' W 124°34'1717.1
2015-Aug-27 07:33N 32°11' W 124°52'24617.0
2015-Aug-26 17:04N 34°15' W 129°06'70717.2
2015-Aug-25 00:00N 39°18' W 142°24'40416.8 090 / 101026.010.8 2.028.022.423.0
2015-Aug-24 00:00N 41°24' W 150°48'   090 / 101028.010.8 2.026.023.222.0
2015-Aug-21 00:00N 43°42' W 178°48'   100 / 161022.0 0.0 2.016.014.414.0

Dump ship's entire track history